Aérodrome :
LOGIN :

S'inscrire | Disclaimer

   EN    FR    IT 

 










Légende :    VFR   VFR Marginal   IFR   IFR Intensif   IFR Très Intensif
Visi : 
Plafond : 
>= 8 km
>= 3000ft
5 à 8 km
1000 à 3000 ft
1500m à 5 km
500 à 1000 ft
800 à 1500m
200 à 500 ft
< 800m
< 200 ft
Symboles :   Orages  Brouillard  Fortes neiges  Fortes précipitations  Vent > 20 kt
SIGMETs :   Divers  Orages  Givrage  Turbulence  Onde Orograph.  Cendres Volcan.






- Altitude de l'aérodrome : 1367 ft
- Code IATA : FDH


EDNY - Friedrichshafen

DERNIER METAR :
  • 230220Z AUTO 02003KT 4400 // OVC006/// 11/10 Q1018

METARs EXPIRÉS :
  • 230150Z AUTO 36004KT 3800 // BKN007/// 11/10 Q1018
  • 230120Z AUTO 01003KT 4200 // NCD 11/10 Q1019
  • 230050Z AUTO VRB02KT 4400 // NCD 10/10 Q1019
  • 230020Z AUTO 05005KT 3600 // NCD 09/08 Q1019
  • 222350Z AUTO 04003KT 3700 // FEW016/// 10/09 Q1020

TAF TAF EDNY
Valide du 23 à 00h jusqu'au 24 à 00h UTC


222300Z 2300/2324 04003KT 4000 BR BKN020
TEMPO 2300/2309 BKN008
PROB30
TEMPO 2304/2308 2000 BR BKN004
BECMG 2309/2311 9999
TEMPO 2320/2324 1200 BCFG



MET'MAP, la Météo Aéronautique d'un coup d'oeil ! - Copyright ORBIFLY Décembre 2007 - Disclaimer

ORBIFLY MET'MAP TEAM :

Programmation & Développement : Alexandra Zaïnal
Conception & Développement : Baudouin d'Aumeries
Co-Programmation & Développement : Marc-Olivier Méhu
Soutien technique & logistique : Manuel Goepfert

Contact : metmap@orbifly.com




SOURCES & CREDITS :

   NOAA